createdAt,value
2022-08-24T00:03:34.683Z,24.61
2022-08-24T00:08:34.013Z,24.57
2022-08-24T00:13:33.194Z,24.70
2022-08-24T00:18:39.667Z,24.78
2022-08-24T00:23:38.832Z,24.83
2022-08-24T00:28:38.428Z,24.77
2022-08-24T00:33:39.041Z,24.82
2022-08-24T00:38:38.162Z,24.78
2022-08-24T00:43:37.554Z,24.71
2022-08-24T00:48:50.530Z,24.58
2022-08-24T00:53:53.296Z,24.54
2022-08-24T00:58:57.111Z,24.57
2022-08-24T01:03:59.632Z,24.72
2022-08-24T01:08:58.649Z,24.65
2022-08-24T01:13:58.178Z,24.39
2022-08-24T01:18:58.983Z,24.45
2022-08-24T01:24:01.924Z,24.39
2022-08-24T01:29:04.847Z,24.45
2022-08-24T01:34:05.891Z,24.65
2022-08-24T01:39:11.769Z,24.80
2022-08-24T01:44:11.167Z,24.93
2022-08-24T01:49:11.544Z,25.15
2022-08-24T01:54:12.559Z,25.32
2022-08-24T01:59:12.632Z,25.47
2022-08-24T02:04:17.734Z,25.58
2022-08-24T02:09:21.383Z,25.67
2022-08-24T02:14:20.753Z,25.72
2022-08-24T02:19:19.728Z,25.79
2022-08-24T02:24:18.698Z,25.82
2022-08-24T02:29:18.989Z,25.71
2022-08-24T02:34:18.541Z,25.87
2022-08-24T02:39:17.823Z,25.91
2022-08-24T02:44:21.000Z,26.04
2022-08-24T02:49:21.542Z,26.12
2022-08-24T02:54:21.381Z,26.30
2022-08-24T02:59:24.824Z,26.42
2022-08-24T03:04:24.086Z,26.37
2022-08-24T03:09:23.581Z,26.52
2022-08-24T03:14:24.787Z,26.58
2022-08-24T03:19:24.972Z,26.14
2022-08-24T03:24:24.199Z,25.77
2022-08-24T03:29:24.499Z,25.52
2022-08-24T03:34:23.748Z,25.32
2022-08-24T03:39:22.788Z,25.22
2022-08-24T03:44:26.410Z,25.08
2022-08-24T03:49:26.520Z,25.02
2022-08-24T03:54:25.475Z,25.03
2022-08-24T03:59:26.073Z,24.98
2022-08-24T04:04:29.591Z,24.96
2022-08-24T04:09:29.420Z,24.93
2022-08-24T04:14:30.113Z,24.93
2022-08-24T04:19:36.481Z,24.92
2022-08-24T04:24:35.835Z,24.96
2022-08-24T04:29:36.516Z,25.06
2022-08-24T04:34:36.076Z,25.03
2022-08-24T04:39:35.304Z,25.09
2022-08-24T04:44:44.667Z,25.65
2022-08-24T04:49:45.805Z,26.07
2022-08-24T04:54:45.381Z,26.41
2022-08-24T04:59:51.671Z,26.69
2022-08-24T05:04:50.560Z,26.94
2022-08-24T05:09:52.393Z,27.10
2022-08-24T05:14:54.340Z,27.28
2022-08-24T05:19:55.034Z,27.39
2022-08-24T05:24:53.997Z,27.43
2022-08-24T05:29:56.090Z,27.53
2022-08-24T05:34:55.906Z,27.62
2022-08-24T05:39:55.883Z,27.65
2022-08-24T05:44:56.315Z,27.71
2022-08-24T05:49:55.462Z,27.75
2022-08-24T05:54:56.158Z,27.89
2022-08-24T05:59:56.580Z,27.98
2022-08-24T06:04:56.024Z,28.05
2022-08-24T06:09:55.122Z,27.91
2022-08-24T06:14:54.088Z,27.77
2022-08-24T06:19:56.899Z,27.69
2022-08-24T06:25:13.312Z,27.83
2022-08-24T06:30:14.025Z,28.10
2022-08-24T06:35:17.309Z,28.23
2022-08-24T06:40:17.327Z,28.36
2022-08-24T06:45:16.633Z,28.49
2022-08-24T06:50:25.056Z,28.48
2022-08-24T06:55:24.668Z,28.43
2022-08-24T07:00:25.206Z,28.33
2022-08-24T07:05:26.483Z,28.14
2022-08-24T07:10:48.709Z,28.18
2022-08-24T07:15:49.603Z,27.98
2022-08-24T07:21:16.999Z,28.31
2022-08-24T07:26:22.871Z,28.31
2022-08-24T07:37:41.264Z,28.76
2022-08-24T07:42:41.776Z,28.77
2022-08-24T07:53:20.773Z,29.27
2022-08-24T07:58:22.678Z,29.48
2022-08-24T08:03:22.007Z,29.60
2022-08-24T08:08:22.572Z,29.66
2022-08-24T08:13:22.101Z,29.66
2022-08-24T08:18:21.384Z,29.70
2022-08-24T08:23:40.723Z,29.87
2022-08-24T08:28:59.083Z,29.96
2022-08-24T08:33:59.353Z,30.22
2022-08-24T08:39:22.861Z,30.26
2022-08-24T08:44:48.656Z,29.99
2022-08-24T08:50:08.211Z,30.40
2022-08-24T08:55:29.263Z,30.24
2022-08-24T09:00:35.053Z,30.82
2022-08-24T09:06:05.264Z,30.93
2022-08-24T09:11:12.620Z,31.08
2022-08-24T09:16:27.961Z,31.55
2022-08-24T09:21:59.054Z,32.89
2022-08-24T09:27:10.046Z,32.40
2022-08-24T09:32:27.193Z,32.92
2022-08-24T09:37:50.920Z,34.02
2022-08-24T09:43:36.813Z,34.50
2022-08-24T09:49:14.368Z,34.74
2022-08-24T09:54:58.950Z,35.57
2022-08-24T10:00:13.798Z,35.73
2022-08-24T10:06:06.394Z,36.45
2022-08-24T10:11:16.775Z,36.32
2022-08-24T10:16:26.178Z,36.73
2022-08-24T10:21:44.091Z,36.60
2022-08-24T10:27:08.102Z,36.52
2022-08-24T10:32:24.041Z,36.33
2022-08-24T10:38:13.548Z,36.46
2022-08-24T10:43:37.186Z,36.59
2022-08-24T10:48:57.908Z,37.00
2022-08-24T10:53:59.075Z,37.17
2022-08-24T10:59:04.933Z,37.20
2022-08-24T11:04:09.930Z,37.12
2022-08-24T11:09:16.066Z,37.45
2022-08-24T11:14:27.034Z,38.39
2022-08-24T11:19:45.438Z,38.53
2022-08-24T11:24:49.290Z,38.91
2022-08-24T11:30:12.489Z,39.39
2022-08-24T11:35:27.303Z,39.49
2022-08-24T11:40:30.781Z,39.71
2022-08-24T11:45:43.469Z,40.05
2022-08-24T11:50:52.471Z,39.69
2022-08-24T11:56:01.925Z,39.55
2022-08-24T12:01:06.969Z,40.03
2022-08-24T12:06:19.980Z,40.83
2022-08-24T12:11:33.251Z,41.34
2022-08-24T12:16:37.378Z,41.28
2022-08-24T12:21:44.687Z,41.30
2022-08-24T12:26:46.964Z,40.94
2022-08-24T12:31:52.128Z,41.79
2022-08-24T12:37:02.934Z,42.55
2022-08-24T12:42:21.664Z,43.31
2022-08-24T12:47:29.892Z,43.21
2022-08-24T12:53:13.558Z,43.61
2022-08-24T12:58:35.121Z,43.80
2022-08-24T13:03:45.748Z,43.46
2022-08-24T13:09:01.495Z,43.93
2022-08-24T13:14:24.991Z,45.13
2022-08-24T13:19:38.903Z,44.64
2022-08-24T13:24:50.155Z,44.74
2022-08-24T13:29:54.764Z,44.34
2022-08-24T13:34:57.697Z,44.32
2022-08-24T13:40:10.099Z,43.42
2022-08-24T13:45:35.965Z,42.65
2022-08-24T13:50:41.714Z,42.05
2022-08-24T13:55:51.147Z,41.01
2022-08-24T14:01:01.873Z,40.43
2022-08-24T14:06:20.670Z,40.91
2022-08-24T14:11:38.791Z,40.40
2022-08-24T14:17:07.414Z,40.34
2022-08-24T14:23:18.320Z,40.14
2022-08-24T14:28:39.622Z,39.68
2022-08-24T14:33:48.867Z,39.69
2022-08-24T14:39:11.608Z,39.48
2022-08-24T14:44:30.096Z,39.35
2022-08-24T14:49:36.891Z,39.07
2022-08-24T14:54:49.104Z,38.70
2022-08-24T15:00:14.455Z,38.93
2022-08-24T15:05:23.610Z,38.96
2022-08-24T15:10:26.635Z,38.25
2022-08-24T15:15:34.085Z,38.31
2022-08-24T15:20:52.783Z,38.49
2022-08-24T15:26:40.526Z,38.63
2022-08-24T15:31:44.718Z,38.47
2022-08-24T15:36:43.979Z,38.30
2022-08-24T15:41:43.703Z,37.97
2022-08-24T15:46:50.580Z,37.70
2022-08-24T15:51:57.189Z,37.52
2022-08-24T15:56:58.677Z,36.63
2022-08-24T16:02:29.122Z,36.32
2022-08-24T16:07:37.584Z,36.30
2022-08-24T16:12:37.059Z,36.19
2022-08-24T16:17:50.960Z,35.89
2022-08-24T16:23:00.188Z,35.57
2022-08-24T16:28:05.343Z,35.29
2022-08-24T16:33:09.077Z,35.02
2022-08-24T16:38:08.125Z,34.33
2022-08-24T16:43:07.172Z,33.65
2022-08-24T16:48:07.899Z,33.47
2022-08-24T16:53:07.199Z,33.28
2022-08-24T16:58:06.915Z,33.04
2022-08-24T17:03:09.745Z,32.56
2022-08-24T17:08:12.959Z,32.28
2022-08-24T17:13:16.530Z,32.04
2022-08-24T17:18:30.723Z,32.07
2022-08-24T17:23:31.808Z,31.81
2022-08-24T17:28:31.360Z,31.72
2022-08-24T17:33:32.735Z,31.61
2022-08-24T17:38:31.801Z,31.55
2022-08-24T17:43:34.214Z,31.47
2022-08-24T17:48:35.299Z,31.48
2022-08-24T17:53:36.404Z,31.38
2022-08-24T17:58:55.669Z,31.32
2022-08-24T18:03:57.110Z,31.22
2022-08-24T18:08:58.474Z,31.04
2022-08-24T18:13:57.434Z,31.09
2022-08-24T18:18:58.234Z,31.07
2022-08-24T18:23:58.342Z,31.04
2022-08-24T18:29:00.396Z,30.98
2022-08-24T18:34:04.371Z,30.94
2022-08-24T18:39:07.013Z,30.86
2022-08-24T18:44:08.597Z,30.81
2022-08-24T18:49:14.237Z,30.74
2022-08-24T18:54:16.802Z,30.68
2022-08-24T18:59:18.694Z,30.64
2022-08-24T19:04:19.052Z,30.61
2022-08-24T19:09:22.127Z,30.55
2022-08-24T19:14:23.239Z,30.49
2022-08-24T19:19:24.193Z,30.42
2022-08-24T19:24:26.469Z,30.28
2022-08-24T19:29:53.991Z,30.21
2022-08-24T19:34:48.097Z,30.11
2022-08-24T19:39:47.946Z,30.04
2022-08-24T19:45:08.595Z,29.95
2022-08-24T19:50:11.815Z,29.88
2022-08-24T19:55:12.752Z,29.77
2022-08-24T20:00:35.205Z,29.65
2022-08-24T20:05:37.639Z,29.58
2022-08-24T20:10:37.546Z,29.55
2022-08-24T20:15:36.691Z,29.52
2022-08-24T20:20:37.069Z,29.50
2022-08-24T20:25:39.613Z,29.45
2022-08-24T20:30:39.391Z,29.39
2022-08-24T20:35:43.946Z,29.36
2022-08-24T20:40:43.090Z,29.32
2022-08-24T20:45:42.533Z,29.28
2022-08-24T20:50:43.554Z,29.28
2022-08-24T21:01:03.309Z,29.20
2022-08-24T21:06:05.186Z,29.19
2022-08-24T21:11:04.177Z,29.16
2022-08-24T21:16:06.056Z,29.15
2022-08-24T21:21:07.141Z,29.11
2022-08-24T21:26:07.581Z,29.02
2022-08-24T21:31:06.709Z,29.01
2022-08-24T21:36:08.121Z,28.97
2022-08-24T21:41:07.383Z,28.91
2022-08-24T21:46:07.191Z,28.86
2022-08-24T21:51:07.922Z,28.83
2022-08-24T21:56:07.643Z,28.74
2022-08-24T22:01:06.816Z,28.70
2022-08-24T22:06:07.812Z,28.66
2022-08-24T22:11:07.689Z,28.61
2022-08-24T22:16:07.651Z,28.52
2022-08-24T22:21:09.783Z,28.49
2022-08-24T22:26:09.471Z,28.42
2022-08-24T22:31:17.247Z,28.38
2022-08-24T22:36:18.583Z,28.34
2022-08-24T22:41:18.281Z,28.30
2022-08-24T22:46:17.564Z,28.25
2022-08-24T22:51:18.775Z,28.22
2022-08-24T22:56:18.207Z,28.07
2022-08-24T23:01:21.654Z,28.04
2022-08-24T23:06:22.443Z,27.99
2022-08-24T23:11:23.333Z,27.92
2022-08-24T23:16:22.480Z,27.87
2022-08-24T23:21:23.334Z,27.81
2022-08-24T23:26:22.351Z,27.70
2022-08-24T23:31:22.995Z,27.62
2022-08-24T23:36:25.731Z,27.54
2022-08-24T23:41:27.324Z,27.47
2022-08-24T23:46:26.264Z,27.38
2022-08-24T23:51:26.678Z,27.30
2022-08-24T23:56:31.649Z,27.23
